sensor_id;sensor_type;location;lat;lon;timestamp;temperature;humidity
46085;DHT22;31823;47.032;8.310;2022-12-18T00:00:41;-1.50;99.90
46085;DHT22;31823;47.032;8.310;2022-12-18T00:03:07;-1.50;99.90
46085;DHT22;31823;47.032;8.310;2022-12-18T00:05:33;-1.50;99.90
46085;DHT22;31823;47.032;8.310;2022-12-18T00:07:59;-1.50;99.90
46085;DHT22;31823;47.032;8.310;2022-12-18T00:10:24;-1.50;99.90
46085;DHT22;31823;47.032;8.310;2022-12-18T00:12:50;-1.60;99.90
46085;DHT22;31823;47.032;8.310;2022-12-18T00:15:15;-1.60;99.90
46085;DHT22;31823;47.032;8.310;2022-12-18T00:17:41;-1.60;99.90
46085;DHT22;31823;47.032;8.310;2022-12-18T00:20:07;-1.70;99.90
46085;DHT22;31823;47.032;8.310;2022-12-18T00:22:33;-1.60;99.90
46085;DHT22;31823;47.032;8.310;2022-12-18T00:24:58;-1.60;99.90
46085;DHT22;31823;47.032;8.310;2022-12-18T00:27:24;-1.60;99.90
46085;DHT22;31823;47.032;8.310;2022-12-18T00:29:50;-1.60;99.90
46085;DHT22;31823;47.032;8.310;2022-12-18T00:32:15;-1.60;99.90
46085;DHT22;31823;47.032;8.310;2022-12-18T00:34:41;-1.70;99.90
46085;DHT22;31823;47.032;8.310;2022-12-18T00:37:06;-1.70;99.90
46085;DHT22;31823;47.032;8.310;2022-12-18T00:39:32;-1.60;99.90
46085;DHT22;31823;47.032;8.310;2022-12-18T00:41:58;-1.70;99.90
46085;DHT22;31823;47.032;8.310;2022-12-18T00:44:42;-1.70;99.90
46085;DHT22;31823;47.032;8.310;2022-12-18T00:47:08;-1.70;99.90
46085;DHT22;31823;47.032;8.310;2022-12-18T00:49:33;-1.70;99.90
46085;DHT22;31823;47.032;8.310;2022-12-18T00:51:59;-1.70;99.90
46085;DHT22;31823;47.032;8.310;2022-12-18T00:54:24;-1.70;99.90
46085;DHT22;31823;47.032;8.310;2022-12-18T00:56:50;-1.70;99.90
46085;DHT22;31823;47.032;8.310;2022-12-18T00:59:17;-1.70;99.90
46085;DHT22;31823;47.032;8.310;2022-12-18T01:01:43;-1.70;99.90
46085;DHT22;31823;47.032;8.310;2022-12-18T01:04:09;-1.70;99.90
46085;DHT22;31823;47.032;8.310;2022-12-18T01:06:35;-1.70;99.90
46085;DHT22;31823;47.032;8.310;2022-12-18T01:09:01;-1.70;99.90
46085;DHT22;31823;47.032;8.310;2022-12-18T01:11:26;-1.70;99.90
46085;DHT22;31823;47.032;8.310;2022-12-18T01:13:53;-1.70;99.90
46085;DHT22;31823;47.032;8.310;2022-12-18T01:16:19;-1.60;99.90
46085;DHT22;31823;47.032;8.310;2022-12-18T01:18:45;-1.70;99.90
46085;DHT22;31823;47.032;8.310;2022-12-18T01:21:15;-1.60;99.90
46085;DHT22;31823;47.032;8.310;2022-12-18T01:23:41;-1.70;99.90
46085;DHT22;31823;47.032;8.310;2022-12-18T01:26:13;-1.60;99.90
46085;DHT22;31823;47.032;8.310;2022-12-18T01:28:39;-1.60;99.90
46085;DHT22;31823;47.032;8.310;2022-12-18T01:33:43;-1.60;99.90
46085;DHT22;31823;47.032;8.310;2022-12-18T01:36:18;-1.60;99.90
46085;DHT22;31823;47.032;8.310;2022-12-18T01:38:45;-1.60;99.90
46085;DHT22;31823;47.032;8.310;2022-12-18T01:41:10;-1.70;99.90
46085;DHT22;31823;47.032;8.310;2022-12-18T01:46:16;-1.60;99.90
46085;DHT22;31823;47.032;8.310;2022-12-18T01:48:43;-1.60;99.90
46085;DHT22;31823;47.032;8.310;2022-12-18T01:51:11;-1.60;99.90
46085;DHT22;31823;47.032;8.310;2022-12-18T01:53:37;-1.50;99.90
46085;DHT22;31823;47.032;8.310;2022-12-18T01:56:05;-1.50;99.90
46085;DHT22;31823;47.032;8.310;2022-12-18T02:01:22;-1.50;99.90
46085;DHT22;31823;47.032;8.310;2022-12-18T02:03:48;-1.60;99.90
46085;DHT22;31823;47.032;8.310;2022-12-18T02:08:51;-1.60;99.90
46085;DHT22;31823;47.032;8.310;2022-12-18T02:17:03;-1.70;99.90
46085;DHT22;31823;47.032;8.310;2022-12-18T02:25:11;-1.70;99.90
46085;DHT22;31823;47.032;8.310;2022-12-18T02:27:40;-1.70;99.90
46085;DHT22;31823;47.032;8.310;2022-12-18T02:30:07;-1.80;99.90
46085;DHT22;31823;47.032;8.310;2022-12-18T02:32:42;-1.80;99.90
46085;DHT22;31823;47.032;8.310;2022-12-18T02:35:24;-1.80;99.90
46085;DHT22;31823;47.032;8.310;2022-12-18T02:37:51;-1.70;99.90
46085;DHT22;31823;47.032;8.310;2022-12-18T02:40:24;-1.70;99.90
46085;DHT22;31823;47.032;8.310;2022-12-18T02:42:50;-1.70;99.90
46085;DHT22;31823;47.032;8.310;2022-12-18T02:45:16;-1.80;99.90
46085;DHT22;31823;47.032;8.310;2022-12-18T02:47:44;-1.80;99.90
46085;DHT22;31823;47.032;8.310;2022-12-18T02:56:18;-1.70;99.90
46085;DHT22;31823;47.032;8.310;2022-12-18T03:04:20;-1.70;99.90
46085;DHT22;31823;47.032;8.310;2022-12-18T03:06:54;-1.70;99.90
46085;DHT22;31823;47.032;8.310;2022-12-18T03:09:24;-1.90;99.90
46085;DHT22;31823;47.032;8.310;2022-12-18T03:11:56;-2.00;99.90
46085;DHT22;31823;47.032;8.310;2022-12-18T03:14:43;-1.90;99.90
46085;DHT22;31823;47.032;8.310;2022-12-18T03:17:14;-1.90;99.90
46085;DHT22;31823;47.032;8.310;2022-12-18T03:19:42;-1.90;99.90
46085;DHT22;31823;47.032;8.310;2022-12-18T03:22:10;-1.90;99.90
46085;DHT22;31823;47.032;8.310;2022-12-18T03:24:37;-1.90;99.90
46085;DHT22;31823;47.032;8.310;2022-12-18T03:27:09;-1.90;99.90
46085;DHT22;31823;47.032;8.310;2022-12-18T03:29:37;-1.90;99.90
46085;DHT22;31823;47.032;8.310;2022-12-18T03:32:12;-1.90;99.90
46085;DHT22;31823;47.032;8.310;2022-12-18T03:34:41;-1.90;99.90
46085;DHT22;31823;47.032;8.310;2022-12-18T03:37:08;-1.90;99.90
46085;DHT22;31823;47.032;8.310;2022-12-18T03:39:34;-1.90;99.90
46085;DHT22;31823;47.032;8.310;2022-12-18T03:47:19;-1.90;99.90
46085;DHT22;31823;47.032;8.310;2022-12-18T03:50:13;-1.90;99.90
46085;DHT22;31823;47.032;8.310;2022-12-18T03:55:33;-1.80;99.90
46085;DHT22;31823;47.032;8.310;2022-12-18T03:58:01;-1.80;99.90
46085;DHT22;31823;47.032;8.310;2022-12-18T04:00:28;-1.80;99.90
46085;DHT22;31823;47.032;8.310;2022-12-18T04:02:56;-1.80;99.90
46085;DHT22;31823;47.032;8.310;2022-12-18T04:05:25;-1.90;99.90
46085;DHT22;31823;47.032;8.310;2022-12-18T04:07:51;-1.90;99.90
46085;DHT22;31823;47.032;8.310;2022-12-18T04:10:18;-1.90;99.90
46085;DHT22;31823;47.032;8.310;2022-12-18T04:12:44;-1.90;99.90
46085;DHT22;31823;47.032;8.310;2022-12-18T04:15:11;-1.90;99.90
46085;DHT22;31823;47.032;8.310;2022-12-18T04:17:37;-1.90;99.90
46085;DHT22;31823;47.032;8.310;2022-12-18T04:20:03;-2.00;99.90
46085;DHT22;31823;47.032;8.310;2022-12-18T04:22:29;-1.90;99.90
46085;DHT22;31823;47.032;8.310;2022-12-18T04:24:55;-1.90;99.90
46085;DHT22;31823;47.032;8.310;2022-12-18T04:27:21;-1.90;99.90
46085;DHT22;31823;47.032;8.310;2022-12-18T04:29:46;-1.90;99.90
46085;DHT22;31823;47.032;8.310;2022-12-18T04:32:12;-1.90;99.90
46085;DHT22;31823;47.032;8.310;2022-12-18T04:34:37;-1.90;99.90
46085;DHT22;31823;47.032;8.310;2022-12-18T04:37:03;-2.00;99.90
46085;DHT22;31823;47.032;8.310;2022-12-18T04:39:28;-2.00;99.90
46085;DHT22;31823;47.032;8.310;2022-12-18T04:41:54;-2.00;99.90
46085;DHT22;31823;47.032;8.310;2022-12-18T04:44:19;-2.00;99.90
46085;DHT22;31823;47.032;8.310;2022-12-18T04:46:45;-2.00;99.90
46085;DHT22;31823;47.032;8.310;2022-12-18T04:49:10;-2.00;99.90
46085;DHT22;31823;47.032;8.310;2022-12-18T04:51:36;-2.10;99.90
46085;DHT22;31823;47.032;8.310;2022-12-18T04:54:02;-2.10;99.90
46085;DHT22;31823;47.032;8.310;2022-12-18T04:56:30;-2.10;99.90
46085;DHT22;31823;47.032;8.310;2022-12-18T04:58:55;-2.10;99.90
46085;DHT22;31823;47.032;8.310;2022-12-18T05:01:21;-2.10;99.90
46085;DHT22;31823;47.032;8.310;2022-12-18T05:03:46;-2.10;99.90
46085;DHT22;31823;47.032;8.310;2022-12-18T05:06:12;-2.20;99.90
46085;DHT22;31823;47.032;8.310;2022-12-18T05:08:37;-2.20;99.90
46085;DHT22;31823;47.032;8.310;2022-12-18T05:11:09;-2.20;99.90
46085;DHT22;31823;47.032;8.310;2022-12-18T05:13:35;-2.20;99.90
46085;DHT22;31823;47.032;8.310;2022-12-18T05:16:01;-2.10;99.90
46085;DHT22;31823;47.032;8.310;2022-12-18T05:18:27;-2.10;99.90
46085;DHT22;31823;47.032;8.310;2022-12-18T05:20:54;-2.20;99.90
46085;DHT22;31823;47.032;8.310;2022-12-18T05:23:21;-2.20;99.90
46085;DHT22;31823;47.032;8.310;2022-12-18T05:26:00;-2.20;99.90
46085;DHT22;31823;47.032;8.310;2022-12-18T05:28:28;-2.20;99.90
46085;DHT22;31823;47.032;8.310;2022-12-18T05:30:56;-2.20;99.90
46085;DHT22;31823;47.032;8.310;2022-12-18T05:33:23;-2.20;99.90
46085;DHT22;31823;47.032;8.310;2022-12-18T05:35:55;-2.30;99.90
46085;DHT22;31823;47.032;8.310;2022-12-18T05:38:22;-2.20;99.90
46085;DHT22;31823;47.032;8.310;2022-12-18T05:40:49;-2.20;99.90
46085;DHT22;31823;47.032;8.310;2022-12-18T05:43:15;-2.20;99.90
46085;DHT22;31823;47.032;8.310;2022-12-18T05:45:41;-2.20;99.90
46085;DHT22;31823;47.032;8.310;2022-12-18T05:48:07;-2.20;99.90
46085;DHT22;31823;47.032;8.310;2022-12-18T05:50:38;-2.20;99.90
46085;DHT22;31823;47.032;8.310;2022-12-18T05:53:04;-2.20;99.90
46085;DHT22;31823;47.032;8.310;2022-12-18T05:55:40;-2.20;99.90
46085;DHT22;31823;47.032;8.310;2022-12-18T05:58:07;-2.20;99.90
46085;DHT22;31823;47.032;8.310;2022-12-18T06:00:36;-2.20;99.90
46085;DHT22;31823;47.032;8.310;2022-12-18T06:03:05;-2.10;99.90
46085;DHT22;31823;47.032;8.310;2022-12-18T06:05:35;-2.20;99.90
46085;DHT22;31823;47.032;8.310;2022-12-18T06:08:01;-2.20;99.90
46085;DHT22;31823;47.032;8.310;2022-12-18T06:10:26;-2.20;99.90
46085;DHT22;31823;47.032;8.310;2022-12-18T06:12:52;-2.20;99.90
46085;DHT22;31823;47.032;8.310;2022-12-18T06:15:17;-2.20;99.90
46085;DHT22;31823;47.032;8.310;2022-12-18T06:17:43;-2.20;99.90
46085;DHT22;31823;47.032;8.310;2022-12-18T06:20:09;-2.20;99.90
46085;DHT22;31823;47.032;8.310;2022-12-18T06:22:34;-2.30;99.90
46085;DHT22;31823;47.032;8.310;2022-12-18T06:25:00;-2.20;99.90
46085;DHT22;31823;47.032;8.310;2022-12-18T06:27:26;-2.20;99.90
46085;DHT22;31823;47.032;8.310;2022-12-18T06:29:51;-2.30;99.90
46085;DHT22;31823;47.032;8.310;2022-12-18T06:32:17;-2.20;99.90
46085;DHT22;31823;47.032;8.310;2022-12-18T06:34:42;-2.20;99.90
46085;DHT22;31823;47.032;8.310;2022-12-18T06:37:08;-2.30;99.90
46085;DHT22;31823;47.032;8.310;2022-12-18T06:39:33;-2.30;99.90
46085;DHT22;31823;47.032;8.310;2022-12-18T06:41:59;-2.30;99.90
46085;DHT22;31823;47.032;8.310;2022-12-18T06:44:24;-2.30;99.90
46085;DHT22;31823;47.032;8.310;2022-12-18T06:46:50;-2.30;99.90
46085;DHT22;31823;47.032;8.310;2022-12-18T06:49:15;-2.30;99.90
46085;DHT22;31823;47.032;8.310;2022-12-18T06:51:42;-2.20;99.90
46085;DHT22;31823;47.032;8.310;2022-12-18T06:54:08;-2.20;99.90
46085;DHT22;31823;47.032;8.310;2022-12-18T06:56:34;-2.20;99.90
46085;DHT22;31823;47.032;8.310;2022-12-18T06:59:00;-2.20;99.90
46085;DHT22;31823;47.032;8.310;2022-12-18T07:01:26;-2.20;99.90
46085;DHT22;31823;47.032;8.310;2022-12-18T07:03:53;-2.20;99.90
46085;DHT22;31823;47.032;8.310;2022-12-18T07:06:21;-2.20;99.90
46085;DHT22;31823;47.032;8.310;2022-12-18T07:08:48;-2.20;99.90
46085;DHT22;31823;47.032;8.310;2022-12-18T07:11:14;-2.20;99.90
46085;DHT22;31823;47.032;8.310;2022-12-18T07:13:40;-2.20;99.90
46085;DHT22;31823;47.032;8.310;2022-12-18T07:18:32;-2.20;99.90
46085;DHT22;31823;47.032;8.310;2022-12-18T07:20:58;-2.30;99.90
46085;DHT22;31823;47.032;8.310;2022-12-18T07:23:23;-2.30;99.90
46085;DHT22;31823;47.032;8.310;2022-12-18T07:25:49;-2.40;99.90
46085;DHT22;31823;47.032;8.310;2022-12-18T07:28:14;-2.40;99.90
46085;DHT22;31823;47.032;8.310;2022-12-18T07:30:40;-2.40;99.90
46085;DHT22;31823;47.032;8.310;2022-12-18T07:33:05;-2.30;99.90
46085;DHT22;31823;47.032;8.310;2022-12-18T07:35:32;-2.30;99.90
46085;DHT22;31823;47.032;8.310;2022-12-18T07:37:58;-2.30;99.90
46085;DHT22;31823;47.032;8.310;2022-12-18T07:40:26;-2.30;99.90
46085;DHT22;31823;47.032;8.310;2022-12-18T07:42:52;-2.20;99.90
46085;DHT22;31823;47.032;8.310;2022-12-18T07:45:17;-2.20;99.90
46085;DHT22;31823;47.032;8.310;2022-12-18T07:47:43;-2.20;99.90
46085;DHT22;31823;47.032;8.310;2022-12-18T07:50:09;-2.20;99.90
46085;DHT22;31823;47.032;8.310;2022-12-18T07:52:34;-2.20;99.90
46085;DHT22;31823;47.032;8.310;2022-12-18T07:55:00;-2.20;99.90
46085;DHT22;31823;47.032;8.310;2022-12-18T07:57:25;-2.20;99.90
46085;DHT22;31823;47.032;8.310;2022-12-18T07:59:51;-2.20;99.90
46085;DHT22;31823;47.032;8.310;2022-12-18T08:02:16;-2.20;99.90
46085;DHT22;31823;47.032;8.310;2022-12-18T08:04:42;-2.10;99.90
46085;DHT22;31823;47.032;8.310;2022-12-18T08:07:07;-2.00;99.90
46085;DHT22;31823;47.032;8.310;2022-12-18T08:09:33;-2.00;99.90
46085;DHT22;31823;47.032;8.310;2022-12-18T08:11:59;-2.10;99.90
46085;DHT22;31823;47.032;8.310;2022-12-18T08:14:24;-2.00;99.90
46085;DHT22;31823;47.032;8.310;2022-12-18T08:16:50;-2.00;99.90
46085;DHT22;31823;47.032;8.310;2022-12-18T08:19:15;-1.90;99.90
46085;DHT22;31823;47.032;8.310;2022-12-18T08:21:41;-1.90;99.90
46085;DHT22;31823;47.032;8.310;2022-12-18T08:24:08;-1.80;99.90
46085;DHT22;31823;47.032;8.310;2022-12-18T08:26:34;-1.70;99.90
46085;DHT22;31823;47.032;8.310;2022-12-18T08:29:00;-1.60;99.90
46085;DHT22;31823;47.032;8.310;2022-12-18T08:31:27;-1.60;99.90
46085;DHT22;31823;47.032;8.310;2022-12-18T08:33:54;-1.60;99.90
46085;DHT22;31823;47.032;8.310;2022-12-18T08:36:20;-1.60;99.90
46085;DHT22;31823;47.032;8.310;2022-12-18T08:38:46;-1.60;99.90
46085;DHT22;31823;47.032;8.310;2022-12-18T08:41:14;-1.50;99.90
46085;DHT22;31823;47.032;8.310;2022-12-18T08:43:40;-1.50;99.90
46085;DHT22;31823;47.032;8.310;2022-12-18T08:46:26;-1.50;99.90
46085;DHT22;31823;47.032;8.310;2022-12-18T08:48:52;-1.50;99.90
46085;DHT22;31823;47.032;8.310;2022-12-18T08:51:19;-1.50;99.90
46085;DHT22;31823;47.032;8.310;2022-12-18T08:53:45;-1.50;99.90
46085;DHT22;31823;47.032;8.310;2022-12-18T08:56:11;-1.50;99.90
46085;DHT22;31823;47.032;8.310;2022-12-18T08:58:37;-1.40;99.90
46085;DHT22;31823;47.032;8.310;2022-12-18T09:01:04;-1.40;99.90
46085;DHT22;31823;47.032;8.310;2022-12-18T09:03:30;-1.40;99.90
46085;DHT22;31823;47.032;8.310;2022-12-18T09:05:56;-1.30;99.90
46085;DHT22;31823;47.032;8.310;2022-12-18T09:08:22;-1.30;99.90
46085;DHT22;31823;47.032;8.310;2022-12-18T09:10:49;-1.30;99.90
46085;DHT22;31823;47.032;8.310;2022-12-18T09:13:16;-1.30;99.90
46085;DHT22;31823;47.032;8.310;2022-12-18T09:15:43;-1.30;99.90
46085;DHT22;31823;47.032;8.310;2022-12-18T09:18:11;-1.20;99.90
46085;DHT22;31823;47.032;8.310;2022-12-18T09:20:37;-1.00;99.90
46085;DHT22;31823;47.032;8.310;2022-12-18T09:23:04;-1.10;99.90
46085;DHT22;31823;47.032;8.310;2022-12-18T09:25:30;-1.10;99.90
46085;DHT22;31823;47.032;8.310;2022-12-18T09:27:59;-1.10;99.90
46085;DHT22;31823;47.032;8.310;2022-12-18T09:30:24;-1.00;99.90
46085;DHT22;31823;47.032;8.310;2022-12-18T09:32:50;-1.00;99.90
46085;DHT22;31823;47.032;8.310;2022-12-18T09:35:15;-0.90;99.90
46085;DHT22;31823;47.032;8.310;2022-12-18T09:37:41;-0.80;99.90
46085;DHT22;31823;47.032;8.310;2022-12-18T09:40:16;-0.80;99.90
46085;DHT22;31823;47.032;8.310;2022-12-18T09:42:47;-0.80;99.90
46085;DHT22;31823;47.032;8.310;2022-12-18T09:45:14;-0.70;99.90
46085;DHT22;31823;47.032;8.310;2022-12-18T09:47:42;-0.70;99.90
46085;DHT22;31823;47.032;8.310;2022-12-18T09:50:24;-0.70;99.90
46085;DHT22;31823;47.032;8.310;2022-12-18T09:52:54;-1.00;99.90
46085;DHT22;31823;47.032;8.310;2022-12-18T09:55:33;-0.90;99.90
46085;DHT22;31823;47.032;8.310;2022-12-18T10:00:32;-1.20;99.90
46085;DHT22;31823;47.032;8.310;2022-12-18T10:03:10;-1.20;99.90
46085;DHT22;31823;47.032;8.310;2022-12-18T10:10:59;-1.10;99.90
46085;DHT22;31823;47.032;8.310;2022-12-18T10:13:44;-1.10;99.90
46085;DHT22;31823;47.032;8.310;2022-12-18T10:19:21;-1.20;99.90
46085;DHT22;31823;47.032;8.310;2022-12-18T10:21:57;-1.10;99.90
46085;DHT22;31823;47.032;8.310;2022-12-18T10:27:17;-0.90;99.90
46085;DHT22;31823;47.032;8.310;2022-12-18T10:29:44;-0.90;99.90
46085;DHT22;31823;47.032;8.310;2022-12-18T10:32:21;-0.90;99.90
46085;DHT22;31823;47.032;8.310;2022-12-18T10:34:50;-0.90;99.90
46085;DHT22;31823;47.032;8.310;2022-12-18T10:37:18;-0.90;99.90
46085;DHT22;31823;47.032;8.310;2022-12-18T10:39:45;-0.90;99.90
46085;DHT22;31823;47.032;8.310;2022-12-18T10:42:17;-0.90;99.90
46085;DHT22;31823;47.032;8.310;2022-12-18T10:44:43;-0.90;99.90
46085;DHT22;31823;47.032;8.310;2022-12-18T10:47:14;-0.90;99.90
46085;DHT22;31823;47.032;8.310;2022-12-18T10:49:50;-0.90;99.90
46085;DHT22;31823;47.032;8.310;2022-12-18T10:52:21;-1.00;99.90
46085;DHT22;31823;47.032;8.310;2022-12-18T10:54:55;-0.90;99.90
46085;DHT22;31823;47.032;8.310;2022-12-18T10:57:33;-1.00;99.90
46085;DHT22;31823;47.032;8.310;2022-12-18T11:02:46;-0.90;99.90
46085;DHT22;31823;47.032;8.310;2022-12-18T11:05:30;-1.00;99.90
46085;DHT22;31823;47.032;8.310;2022-12-18T11:07:57;-0.90;99.90
46085;DHT22;31823;47.032;8.310;2022-12-18T11:10:31;-1.00;99.90
46085;DHT22;31823;47.032;8.310;2022-12-18T11:13:18;-0.80;99.90
46085;DHT22;31823;47.032;8.310;2022-12-18T11:15:46;-0.80;99.90
46085;DHT22;31823;47.032;8.310;2022-12-18T11:18:32;-1.00;99.90
46085;DHT22;31823;47.032;8.310;2022-12-18T11:21:07;-1.10;99.90
46085;DHT22;31823;47.032;8.310;2022-12-18T11:23:34;-1.00;99.90
46085;DHT22;31823;47.032;8.310;2022-12-18T11:26:02;-1.00;99.90
46085;DHT22;31823;47.032;8.310;2022-12-18T11:28:38;-1.00;99.90
46085;DHT22;31823;47.032;8.310;2022-12-18T11:31:22;-1.00;99.90
46085;DHT22;31823;47.032;8.310;2022-12-18T11:34:11;-1.00;99.90
46085;DHT22;31823;47.032;8.310;2022-12-18T11:36:42;-1.10;99.90
46085;DHT22;31823;47.032;8.310;2022-12-18T11:39:15;-1.10;99.90
46085;DHT22;31823;47.032;8.310;2022-12-18T11:41:54;-1.00;99.90
46085;DHT22;31823;47.032;8.310;2022-12-18T11:44:59;-0.80;99.90
46085;DHT22;31823;47.032;8.310;2022-12-18T11:50:24;-1.00;99.90
46085;DHT22;31823;47.032;8.310;2022-12-18T11:52:50;-1.00;99.90
46085;DHT22;31823;47.032;8.310;2022-12-18T11:58:51;-0.90;99.90
46085;DHT22;31823;47.032;8.310;2022-12-18T12:01:43;-0.80;99.90
46085;DHT22;31823;47.032;8.310;2022-12-18T12:07:12;-0.90;99.90
46085;DHT22;31823;47.032;8.310;2022-12-18T12:17:54;-0.90;99.90
46085;DHT22;31823;47.032;8.310;2022-12-18T12:26:23;-0.90;99.90
46085;DHT22;31823;47.032;8.310;2022-12-18T12:31:59;-0.80;99.90
46085;DHT22;31823;47.032;8.310;2022-12-18T12:39:36;-0.80;99.90
46085;DHT22;31823;47.032;8.310;2022-12-18T12:42:04;-0.80;99.90
46085;DHT22;31823;47.032;8.310;2022-12-18T12:44:55;-0.90;99.90
46085;DHT22;31823;47.032;8.310;2022-12-18T12:47:33;-0.80;99.90
46085;DHT22;31823;47.032;8.310;2022-12-18T12:50:03;-0.60;99.90
46085;DHT22;31823;47.032;8.310;2022-12-18T12:52:32;-0.60;99.90
46085;DHT22;31823;47.032;8.310;2022-12-18T12:55:01;-0.70;99.90
46085;DHT22;31823;47.032;8.310;2022-12-18T12:57:34;-0.80;99.90
46085;DHT22;31823;47.032;8.310;2022-12-18T13:02:52;-0.70;99.90
46085;DHT22;31823;47.032;8.310;2022-12-18T13:08:22;-0.70;99.90
46085;DHT22;31823;47.032;8.310;2022-12-18T13:10:48;-0.60;99.90
46085;DHT22;31823;47.032;8.310;2022-12-18T13:13:15;-0.60;99.90
46085;DHT22;31823;47.032;8.310;2022-12-18T13:15:46;-0.70;99.90
46085;DHT22;31823;47.032;8.310;2022-12-18T13:23:39;-0.80;99.90
46085;DHT22;31823;47.032;8.310;2022-12-18T13:31:02;-0.60;99.90
46085;DHT22;31823;47.032;8.310;2022-12-18T13:33:47;-0.50;99.90
46085;DHT22;31823;47.032;8.310;2022-12-18T13:36:36;-0.50;99.90
46085;DHT22;31823;47.032;8.310;2022-12-18T13:41:40;-0.60;99.90
46085;DHT22;31823;47.032;8.310;2022-12-18T13:46:51;-0.70;99.90
46085;DHT22;31823;47.032;8.310;2022-12-18T13:49:23;-0.60;99.90
46085;DHT22;31823;47.032;8.310;2022-12-18T13:51:51;-0.50;99.90
46085;DHT22;31823;47.032;8.310;2022-12-18T13:56:50;-0.50;99.90
46085;DHT22;31823;47.032;8.310;2022-12-18T13:59:21;-0.60;99.90
46085;DHT22;31823;47.032;8.310;2022-12-18T14:01:56;-0.60;99.90
46085;DHT22;31823;47.032;8.310;2022-12-18T14:06:55;-0.60;99.90
46085;DHT22;31823;47.032;8.310;2022-12-18T14:09:30;-0.60;99.90
46085;DHT22;31823;47.032;8.310;2022-12-18T14:11:57;-0.60;99.90
46085;DHT22;31823;47.032;8.310;2022-12-18T14:14:45;-0.70;99.90
46085;DHT22;31823;47.032;8.310;2022-12-18T14:17:13;-0.50;99.90
46085;DHT22;31823;47.032;8.310;2022-12-18T14:19:44;-0.70;99.90
46085;DHT22;31823;47.032;8.310;2022-12-18T14:22:17;-0.70;99.90
46085;DHT22;31823;47.032;8.310;2022-12-18T14:24:43;-0.70;99.90
46085;DHT22;31823;47.032;8.310;2022-12-18T14:27:25;-0.80;99.90
46085;DHT22;31823;47.032;8.310;2022-12-18T14:29:51;-0.80;99.90
46085;DHT22;31823;47.032;8.310;2022-12-18T14:32:20;-0.90;99.90
46085;DHT22;31823;47.032;8.310;2022-12-18T14:34:48;-0.80;99.90
46085;DHT22;31823;47.032;8.310;2022-12-18T14:37:17;-0.80;99.90
46085;DHT22;31823;47.032;8.310;2022-12-18T14:39:54;-0.80;99.90
46085;DHT22;31823;47.032;8.310;2022-12-18T14:42:19;-0.80;99.90
46085;DHT22;31823;47.032;8.310;2022-12-18T14:44:46;-0.80;99.90
46085;DHT22;31823;47.032;8.310;2022-12-18T14:47:16;-0.80;99.90
46085;DHT22;31823;47.032;8.310;2022-12-18T14:49:43;-0.80;99.90
46085;DHT22;31823;47.032;8.310;2022-12-18T14:52:23;-1.00;99.90
46085;DHT22;31823;47.032;8.310;2022-12-18T14:54:52;-0.90;99.90
46085;DHT22;31823;47.032;8.310;2022-12-18T14:57:36;-0.90;99.90
46085;DHT22;31823;47.032;8.310;2022-12-18T15:00:06;-0.90;99.90
46085;DHT22;31823;47.032;8.310;2022-12-18T15:02:35;-0.90;99.90
46085;DHT22;31823;47.032;8.310;2022-12-18T15:05:14;-1.00;99.90
46085;DHT22;31823;47.032;8.310;2022-12-18T15:07:53;-1.00;99.90
46085;DHT22;31823;47.032;8.310;2022-12-18T15:10:21;-1.00;99.90
46085;DHT22;31823;47.032;8.310;2022-12-18T15:20:56;-1.20;99.90
46085;DHT22;31823;47.032;8.310;2022-12-18T15:26:01;-1.10;99.90
46085;DHT22;31823;47.032;8.310;2022-12-18T15:36:10;-1.30;99.90
46085;DHT22;31823;47.032;8.310;2022-12-18T15:38:36;-1.40;99.90
46085;DHT22;31823;47.032;8.310;2022-12-18T15:41:02;-1.30;99.90
46085;DHT22;31823;47.032;8.310;2022-12-18T15:43:28;-1.30;99.90
46085;DHT22;31823;47.032;8.310;2022-12-18T15:46:13;-1.30;99.90
46085;DHT22;31823;47.032;8.310;2022-12-18T15:48:43;-1.30;99.90
46085;DHT22;31823;47.032;8.310;2022-12-18T15:51:29;-1.30;99.90
46085;DHT22;31823;47.032;8.310;2022-12-18T15:53:58;-1.30;99.90
46085;DHT22;31823;47.032;8.310;2022-12-18T15:56:24;-1.40;99.90
46085;DHT22;31823;47.032;8.310;2022-12-18T15:59:14;-1.40;99.90
46085;DHT22;31823;47.032;8.310;2022-12-18T16:01:44;-1.40;99.90
46085;DHT22;31823;47.032;8.310;2022-12-18T16:04:15;-1.40;99.90
46085;DHT22;31823;47.032;8.310;2022-12-18T16:06:41;-1.40;99.90
46085;DHT22;31823;47.032;8.310;2022-12-18T16:09:07;-1.40;99.90
46085;DHT22;31823;47.032;8.310;2022-12-18T16:11:35;-1.40;99.90
46085;DHT22;31823;47.032;8.310;2022-12-18T16:14:21;-1.40;99.90
46085;DHT22;31823;47.032;8.310;2022-12-18T16:17:08;-1.30;99.90
46085;DHT22;31823;47.032;8.310;2022-12-18T16:19:34;-1.30;99.90
46085;DHT22;31823;47.032;8.310;2022-12-18T16:22:00;-1.20;99.90
46085;DHT22;31823;47.032;8.310;2022-12-18T16:24:30;-1.10;99.90
46085;DHT22;31823;47.032;8.310;2022-12-18T16:26:58;-1.10;99.90
46085;DHT22;31823;47.032;8.310;2022-12-18T16:29:25;-1.10;99.90
46085;DHT22;31823;47.032;8.310;2022-12-18T16:32:01;-1.10;99.90
46085;DHT22;31823;47.032;8.310;2022-12-18T16:34:33;-1.10;99.90
46085;DHT22;31823;47.032;8.310;2022-12-18T16:37:07;-1.10;99.90
46085;DHT22;31823;47.032;8.310;2022-12-18T16:39:34;-1.10;99.90
46085;DHT22;31823;47.032;8.310;2022-12-18T16:42:01;-1.10;99.90
46085;DHT22;31823;47.032;8.310;2022-12-18T16:44:27;-1.10;99.90
46085;DHT22;31823;47.032;8.310;2022-12-18T16:46:53;-1.10;99.90
46085;DHT22;31823;47.032;8.310;2022-12-18T16:49:19;-1.10;99.90
46085;DHT22;31823;47.032;8.310;2022-12-18T16:51:45;-1.10;99.90
46085;DHT22;31823;47.032;8.310;2022-12-18T16:54:11;-1.10;99.90
46085;DHT22;31823;47.032;8.310;2022-12-18T16:56:37;-1.10;99.90
46085;DHT22;31823;47.032;8.310;2022-12-18T16:59:03;-1.10;99.90
46085;DHT22;31823;47.032;8.310;2022-12-18T17:01:31;-1.10;99.90
46085;DHT22;31823;47.032;8.310;2022-12-18T17:04:03;-1.20;99.90
46085;DHT22;31823;47.032;8.310;2022-12-18T17:06:30;-1.10;99.90
46085;DHT22;31823;47.032;8.310;2022-12-18T17:09:02;-1.20;99.90
46085;DHT22;31823;47.032;8.310;2022-12-18T17:11:29;-1.20;99.90
46085;DHT22;31823;47.032;8.310;2022-12-18T17:13:55;-1.20;99.90
46085;DHT22;31823;47.032;8.310;2022-12-18T17:16:21;-1.20;99.90
46085;DHT22;31823;47.032;8.310;2022-12-18T17:18:47;-1.20;99.90
46085;DHT22;31823;47.032;8.310;2022-12-18T17:21:13;-1.10;99.90
46085;DHT22;31823;47.032;8.310;2022-12-18T17:23:40;-1.10;99.90
46085;DHT22;31823;47.032;8.310;2022-12-18T17:26:06;-1.20;99.90
46085;DHT22;31823;47.032;8.310;2022-12-18T17:28:33;-1.10;99.90
46085;DHT22;31823;47.032;8.310;2022-12-18T17:30:59;-1.20;99.90
46085;DHT22;31823;47.032;8.310;2022-12-18T17:33:25;-1.10;99.90
46085;DHT22;31823;47.032;8.310;2022-12-18T17:35:51;-1.20;99.90
46085;DHT22;31823;47.032;8.310;2022-12-18T17:38:17;-1.20;99.90
46085;DHT22;31823;47.032;8.310;2022-12-18T17:40:43;-1.10;99.90
46085;DHT22;31823;47.032;8.310;2022-12-18T17:43:10;-1.10;99.90
46085;DHT22;31823;47.032;8.310;2022-12-18T17:45:37;-1.10;99.90
46085;DHT22;31823;47.032;8.310;2022-12-18T17:48:06;-1.20;99.90
46085;DHT22;31823;47.032;8.310;2022-12-18T17:50:33;-1.20;99.90
46085;DHT22;31823;47.032;8.310;2022-12-18T17:52:59;-1.20;99.90
46085;DHT22;31823;47.032;8.310;2022-12-18T17:55:25;-1.20;99.90
46085;DHT22;31823;47.032;8.310;2022-12-18T17:57:51;-1.20;99.90